Time;durP1;ratioP1;P1;durP2;ratioP2;P2;SDS_P1;SDS_P2;PMS_P1;PMS_P2;Temp;Humidity;BMP_temperature;BMP_pressure;BME280_temperature;BME280_humidity;BME280_pressure;Samples;Min_cycle;Max_cycle;Signal;HPM_P1;HPM_P2
2024/01/31 00:00:42;;;;;;;27.67;12.82;;;0.40;99.90;;;;;;5088340;28;20484;-65
2024/01/31 00:03:10;;;;;;;23.42;9.43;;;0.40;99.90;;;;;;5083677;28;20052;-67
2024/01/31 00:05:38;;;;;;;23.85;10.48;;;0.40;99.90;;;;;;5089196;28;20399;-70
2024/01/31 00:08:06;;;;;;;24.15;10.10;;;0.40;99.90;;;;;;5089500;28;20052;-71
2024/01/31 00:10:34;;;;;;;21.65;9.88;;;0.30;99.90;;;;;;5070773;28;20048;-68
2024/01/31 00:13:01;;;;;;;25.92;10.98;;;0.40;99.90;;;;;;5072600;28;20423;-65
2024/01/31 00:15:29;;;;;;;25.58;10.77;;;0.30;99.90;;;;;;5087933;28;20056;-69
2024/01/31 00:17:56;;;;;;;25.40;10.55;;;0.30;99.90;;;;;;5089139;28;20051;-65
2024/01/31 00:20:24;;;;;;;21.42;9.70;;;0.30;99.90;;;;;;5087630;28;20044;-63
2024/01/31 00:22:52;;;;;;;21.90;9.80;;;0.30;99.90;;;;;;5088870;28;20048;-64
2024/01/31 00:25:19;;;;;;;24.92;11.00;;;0.20;99.90;;;;;;5073161;28;20368;-63
2024/01/31 00:27:47;;;;;;;21.50;10.07;;;0.30;99.90;;;;;;5053941;28;20063;-62
2024/01/31 00:30:15;;;;;;;23.55;10.32;;;0.20;99.90;;;;;;5088089;28;20059;-63
2024/01/31 00:32:43;;;;;;;21.05;8.93;;;0.20;99.90;;;;;;5087147;28;20717;-64
2024/01/31 00:35:10;;;;;;;24.17;9.63;;;0.10;99.90;;;;;;5088553;28;20537;-68
2024/01/31 00:37:38;;;;;;;18.40;8.18;;;0.10;99.90;;;;;;5088903;28;20052;-65
2024/01/31 00:40:09;;;;;;;23.55;9.68;;;0.00;99.90;;;;;;5075777;28;20041;-71
2024/01/31 00:42:42;;;;;;;25.38;10.00;;;0.10;99.90;;;;;;5067684;28;20044;-71
2024/01/31 00:45:11;;;;;;;25.80;9.40;;;0.00;99.90;;;;;;5088054;28;20510;-70
2024/01/31 00:47:38;;;;;;;16.40;8.35;;;0.00;99.90;;;;;;5070346;28;20048;-69
2024/01/31 00:50:07;;;;;;;20.80;9.75;;;0.00;99.90;;;;;;5088686;28;20055;-70
2024/01/31 00:52:35;;;;;;;26.15;9.63;;;0.00;99.90;;;;;;5088355;28;20052;-70
2024/01/31 00:55:03;;;;;;;25.65;10.95;;;-0.10;99.90;;;;;;5082946;28;20045;-66
2024/01/31 00:57:31;;;;;;;24.33;10.55;;;-0.10;99.90;;;;;;5068990;28;20657;-64
2024/01/31 01:00:00;;;;;;;24.23;9.98;;;-0.10;99.90;;;;;;5085098;28;20040;-67
2024/01/31 01:02:28;;;;;;;22.08;10.55;;;-0.10;99.90;;;;;;5086192;28;20060;-63
2024/01/31 01:04:55;;;;;;;25.05;9.63;;;-0.10;99.90;;;;;;5084724;28;20043;-69
2024/01/31 01:07:23;;;;;;;25.23;10.55;;;-0.10;99.90;;;;;;5086690;28;20044;-69
2024/01/31 01:09:51;;;;;;;30.25;10.90;;;-0.20;99.90;;;;;;5080070;28;20045;-62
2024/01/31 01:12:19;;;;;;;24.95;9.48;;;-0.30;99.90;;;;;;5068042;28;20060;-63
2024/01/31 01:14:47;;;;;;;25.05;10.40;;;-0.20;99.90;;;;;;5084122;28;20052;-62
2024/01/31 01:17:14;;;;;;;29.17;9.90;;;-0.30;99.90;;;;;;5053295;28;20399;-69
2024/01/31 01:19:42;;;;;;;22.52;9.75;;;-0.30;99.90;;;;;;5088100;28;20047;-71
2024/01/31 01:22:09;;;;;;;21.92;9.77;;;-0.30;99.90;;;;;;5087643;28;20047;-68
2024/01/31 01:24:37;;;;;;;27.42;10.75;;;-0.20;99.90;;;;;;5080817;28;20033;-65
2024/01/31 01:27:05;;;;;;;32.03;11.55;;;-0.30;99.90;;;;;;5077875;28;20040;-63
2024/01/31 02:01:00;;;;;;;27.13;10.75;;;-0.30;99.90;;;;;;5065078;28;20028;-66
2024/01/31 02:03:32;;;;;;;23.58;11.18;;;-0.40;99.90;;;;;;5082024;28;20479;-65
2024/01/31 02:06:00;;;;;;;28.67;12.20;;;-0.30;99.90;;;;;;5083139;28;20044;-63
2024/01/31 02:08:29;;;;;;;26.80;10.88;;;-0.30;99.90;;;;;;5083938;28;20203;-63
2024/01/31 02:10:56;;;;;;;33.00;12.38;;;-0.40;99.90;;;;;;5084646;28;20390;-64
2024/01/31 02:13:24;;;;;;;26.40;10.93;;;-0.40;99.90;;;;;;5076462;28;20060;-63
2024/01/31 02:15:56;;;;;;;27.30;11.25;;;-0.40;99.90;;;;;;5087630;28;20052;-63
2024/01/31 02:18:26;;;;;;;31.23;11.73;;;-0.40;99.90;;;;;;5077924;28;20059;-68
2024/01/31 02:20:54;;;;;;;27.55;13.30;;;-0.40;99.90;;;;;;5067947;28;20048;-64
2024/01/31 02:23:22;;;;;;;27.30;12.77;;;-0.50;99.90;;;;;;5077675;28;20044;-64
2024/01/31 02:25:50;;;;;;;28.25;11.95;;;-0.50;99.90;;;;;;5089539;28;20056;-67
2024/01/31 02:28:18;;;;;;;31.50;11.77;;;-0.40;99.90;;;;;;5087184;28;20044;-64
2024/01/31 02:30:46;;;;;;;26.75;12.00;;;-0.50;99.90;;;;;;5081156;28;20047;-63
2024/01/31 02:33:13;;;;;;;25.67;12.10;;;-0.50;99.90;;;;;;5077513;28;20052;-63
2024/01/31 02:35:41;;;;;;;30.67;11.70;;;-0.50;99.90;;;;;;5085379;28;20055;-64
2024/01/31 02:38:08;;;;;;;23.15;10.38;;;-0.50;99.90;;;;;;5093110;28;20055;-63
2024/01/31 02:40:36;;;;;;;31.90;11.23;;;-0.50;99.90;;;;;;5094425;28;20048;-64
2024/01/31 02:43:04;;;;;;;22.45;10.93;;;-0.50;99.90;;;;;;5093936;28;20052;-63
2024/01/31 02:45:33;;;;;;;23.02;11.32;;;-0.60;99.90;;;;;;5089476;28;20048;-62
2024/01/31 02:48:01;;;;;;;20.80;10.10;;;-0.60;99.90;;;;;;5086146;28;20510;-63
2024/01/31 02:50:31;;;;;;;25.63;10.60;;;-0.60;99.90;;;;;;5074084;28;20051;-63
2024/01/31 02:53:00;;;;;;;26.05;10.13;;;-0.60;99.90;;;;;;5074138;28;20052;-63
2024/01/31 02:55:27;;;;;;;27.35;10.10;;;-0.60;99.90;;;;;;5084275;28;20036;-62
2024/01/31 02:57:55;;;;;;;26.40;9.60;;;-0.60;99.90;;;;;;5084644;28;20464;-63
2024/01/31 03:00:23;;;;;;;22.48;10.15;;;-0.60;99.90;;;;;;5074525;28;20227;-64
2024/01/31 03:02:51;;;;;;;26.45;10.98;;;-0.70;99.90;;;;;;5094099;28;20059;-62
2024/01/31 03:05:18;;;;;;;22.30;9.98;;;-0.70;99.90;;;;;;5092226;28;20771;-62
2024/01/31 03:07:46;;;;;;;21.08;10.07;;;-0.70;99.90;;;;;;5092848;28;20040;-63
2024/01/31 03:10:14;;;;;;;30.67;10.52;;;-0.70;99.90;;;;;;5093403;28;20036;-63
2024/01/31 03:12:41;;;;;;;25.50;10.20;;;-0.70;99.90;;;;;;5089144;28;20048;-62
2024/01/31 03:15:11;;;;;;;21.63;9.65;;;-0.80;99.90;;;;;;5091668;28;20048;-63
2024/01/31 03:17:38;;;;;;;21.60;8.73;;;-0.80;99.90;;;;;;5084019;28;20052;-63
2024/01/31 03:20:07;;;;;;;26.65;9.75;;;-0.80;99.90;;;;;;5093692;28;20055;-63
2024/01/31 03:22:35;;;;;;;25.67;9.25;;;-0.80;99.90;;;;;;5092958;28;20052;-63
2024/01/31 03:25:04;;;;;;;19.25;9.13;;;-0.80;99.90;;;;;;5093559;28;20070;-63
2024/01/31 03:27:33;;;;;;;21.80;9.45;;;-0.90;99.90;;;;;;5075115;28;20067;-63
2024/01/31 03:30:04;;;;;;;20.50;10.15;;;-0.90;99.90;;;;;;5073293;28;20045;-63
2024/01/31 03:32:36;;;;;;;20.08;11.27;;;-0.90;99.90;;;;;;5086554;28;20503;-63
2024/01/31 03:35:05;;;;;;;19.67;8.55;;;-0.90;99.90;;;;;;5091655;28;20479;-68
2024/01/31 03:37:32;;;;;;;27.90;9.65;;;-0.90;99.90;;;;;;5093376;28;20047;-63
2024/01/31 03:40:00;;;;;;;21.77;10.20;;;-0.90;99.90;;;;;;5093384;28;20047;-65
2024/01/31 03:42:28;;;;;;;21.95;10.10;;;-0.90;99.90;;;;;;5092388;28;20044;-63
2024/01/31 03:44:57;;;;;;;29.75;10.07;;;-0.90;99.90;;;;;;5088890;28;20051;-63
2024/01/31 03:47:25;;;;;;;32.00;11.65;;;-0.90;99.90;;;;;;5092647;28;20051;-63
2024/01/31 03:49:53;;;;;;;21.27;8.60;;;-0.90;99.90;;;;;;5090964;28;20059;-66
2024/01/31 03:52:24;;;;;;;23.48;10.50;;;-0.90;99.90;;;;;;5093384;28;20515;-68
2024/01/31 03:54:51;;;;;;;19.92;9.15;;;-0.90;99.90;;;;;;5092869;28;20059;-62
2024/01/31 03:57:19;;;;;;;21.10;9.32;;;-0.90;99.90;;;;;;5088263;28;20063;-64
2024/01/31 03:59:48;;;;;;;20.48;9.00;;;-0.90;99.90;;;;;;5072682;28;20067;-63
2024/01/31 04:02:16;;;;;;;18.02;7.90;;;-0.90;99.90;;;;;;5072539;28;20056;-63
2024/01/31 04:04:44;;;;;;;17.40;8.35;;;-0.90;99.90;;;;;;5088474;28;20047;-63
2024/01/31 04:07:12;;;;;;;21.42;9.40;;;-0.90;99.90;;;;;;5092760;28;20529;-67
2024/01/31 04:09:39;;;;;;;22.90;9.55;;;-0.90;99.90;;;;;;5092903;28;20044;-63
2024/01/31 04:12:07;;;;;;;26.05;10.80;;;-0.90;99.90;;;;;;5091653;28;20055;-66
2024/01/31 04:14:35;;;;;;;21.48;9.18;;;-0.90;99.90;;;;;;5092093;28;20032;-66
2024/01/31 04:17:02;;;;;;;22.23;9.85;;;-0.90;99.90;;;;;;5092031;28;20056;-63
2024/01/31 04:19:30;;;;;;;25.15;10.43;;;-0.90;99.90;;;;;;5092681;28;20044;-63
2024/01/31 04:21:58;;;;;;;23.42;10.07;;;-0.90;99.90;;;;;;5091340;28;20048;-63
2024/01/31 04:24:26;;;;;;;23.88;9.10;;;-0.80;99.90;;;;;;5091599;28;20487;-63
2024/01/31 04:26:53;;;;;;;19.23;9.48;;;-0.80;99.90;;;;;;5091609;28;20043;-64
2024/01/31 04:29:21;;;;;;;23.20;9.55;;;-0.90;99.90;;;;;;5092356;28;20475;-63
2024/01/31 04:31:52;;;;;;;16.67;7.25;;;-0.90;99.90;;;;;;5092186;28;20506;-63
2024/01/31 04:34:20;;;;;;;12.45;5.95;;;-0.90;99.90;;;;;;5075458;28;20510;-64
2024/01/31 04:36:48;;;;;;;13.52;5.10;;;-0.80;99.90;;;;;;5088777;28;20475;-64
2024/01/31 04:39:16;;;;;;;12.82;5.80;;;-0.80;99.90;;;;;;5092273;28;20044;-62
2024/01/31 04:41:46;;;;;;;21.30;6.75;;;-0.80;99.90;;;;;;5085474;28;20048;-63
2024/01/31 04:44:14;;;;;;;15.85;5.07;;;-0.60;99.90;;;;;;5074452;28;20052;-65
2024/01/31 04:46:42;;;;;;;22.15;6.55;;;-0.60;99.90;;;;;;5091935;28;20055;-63
2024/01/31 04:49:10;;;;;;;14.52;7.25;;;-0.50;99.90;;;;;;5087895;28;20048;-65
2024/01/31 04:51:42;;;;;;;28.27;8.88;;;-0.50;99.90;;;;;;5071840;28;20476;-63
2024/01/31 04:54:09;;;;;;;23.85;7.88;;;-0.40;99.90;;;;;;5072313;28;20048;-63
2024/01/31 04:56:38;;;;;;;16.98;8.25;;;-0.40;99.90;;;;;;5091988;28;20051;-63
2024/01/31 04:59:06;;;;;;;18.80;8.18;;;-0.30;99.90;;;;;;5091264;28;20388;-64
2024/01/31 05:01:34;;;;;;;16.58;7.68;;;-0.30;99.90;;;;;;5090952;28;20040;-67
2024/01/31 05:04:03;;;;;;;28.70;9.27;;;-0.30;99.90;;;;;;5091833;28;20051;-63
2024/01/31 05:06:30;;;;;;;19.38;8.57;;;-0.30;99.90;;;;;;5078996;28;20045;-63
2024/01/31 05:08:58;;;;;;;19.58;8.70;;;-0.30;99.90;;;;;;5071688;28;20488;-64
2024/01/31 05:11:26;;;;;;;23.88;9.10;;;-0.30;99.90;;;;;;5070270;28;20056;-63
2024/01/31 05:13:53;;;;;;;18.13;8.75;;;-0.30;99.90;;;;;;5071321;28;20052;-62
2024/01/31 05:16:21;;;;;;;22.50;8.63;;;-0.30;99.90;;;;;;5090371;28;20040;-63
2024/01/31 05:18:49;;;;;;;21.92;8.63;;;-0.20;99.90;;;;;;5089801;28;20040;-63
2024/01/31 05:21:16;;;;;;;18.55;7.80;;;-0.20;99.90;;;;;;5091429;28;20040;-62
2024/01/31 05:23:44;;;;;;;19.67;5.93;;;-0.20;99.90;;;;;;5089165;28;20051;-62
2024/01/31 05:26:12;;;;;;;11.52;5.05;;;-0.10;99.90;;;;;;5090036;28;20055;-65
2024/01/31 05:28:39;;;;;;;14.43;4.55;;;0.00;99.90;;;;;;5091541;28;20055;-66
2024/01/31 05:31:07;;;;;;;11.57;4.10;;;0.10;99.90;;;;;;5087851;28;20048;-62
2024/01/31 05:33:35;;;;;;;9.55;3.42;;;0.20;99.90;;;;;;5074798;28;20480;-63
2024/01/31 05:36:02;;;;;;;10.23;3.13;;;0.20;99.90;;;;;;5087565;28;20052;-62
2024/01/31 05:38:30;;;;;;;10.20;2.92;;;0.30;99.90;;;;;;5090250;28;20488;-63
2024/01/31 05:40:58;;;;;;;7.43;2.78;;;0.40;99.90;;;;;;5090041;28;20048;-62
2024/01/31 05:43:25;;;;;;;8.90;2.45;;;0.50;99.90;;;;;;5088042;28;20048;-62
2024/01/31 05:45:53;;;;;;;10.48;3.30;;;0.60;99.90;;;;;;5089402;28;20044;-64
2024/01/31 05:48:21;;;;;;;9.60;3.60;;;0.60;99.90;;;;;;5076239;28;20040;-62
2024/01/31 05:50:48;;;;;;;11.07;2.72;;;0.80;99.90;;;;;;5086337;28;20048;-62
2024/01/31 05:53:16;;;;;;;11.65;3.03;;;0.80;99.90;;;;;;5086307;28;20063;-62
2024/01/31 05:55:44;;;;;;;5.85;2.28;;;0.90;99.90;;;;;;5088433;28;20059;-64
2024/01/31 05:58:11;;;;;;;9.50;2.20;;;0.90;99.90;;;;;;5087888;28;20040;-64
2024/01/31 06:00:40;;;;;;;7.68;2.38;;;1.00;99.90;;;;;;5087665;28;20052;-67
2024/01/31 06:03:08;;;;;;;7.18;2.47;;;1.00;99.90;;;;;;5073210;28;20059;-66
2024/01/31 06:05:36;;;;;;;9.00;2.30;;;1.00;99.90;;;;;;5081435;28;20399;-63
2024/01/31 06:08:04;;;;;;;6.53;2.40;;;1.00;99.90;;;;;;5084528;28;20044;-64
2024/01/31 06:10:35;;;;;;;8.93;2.30;;;1.00;99.90;;;;;;5085078;28;20052;-64
2024/01/31 06:13:02;;;;;;;15.68;2.67;;;1.00;99.90;;;;;;5089409;28;20051;-67
2024/01/31 06:15:30;;;;;;;8.30;3.00;;;1.00;99.90;;;;;;5087639;28;20055;-63
2024/01/31 06:17:58;;;;;;;14.13;6.10;;;1.00;99.90;;;;;;5079898;28;20064;-69
2024/01/31 06:20:26;;;;;;;8.82;4.65;;;1.00;99.90;;;;;;5067014;28;20056;-69
2024/01/31 06:22:54;;;;;;;16.35;5.78;;;0.90;99.90;;;;;;5077739;28;20048;-68
2024/01/31 06:25:22;;;;;;;9.75;5.50;;;0.80;99.90;;;;;;5091011;28;20056;-68
2024/01/31 06:27:50;;;;;;;10.35;5.30;;;0.80;99.90;;;;;;5086256;28;20070;-67
2024/01/31 06:30:20;;;;;;;14.32;5.13;;;0.70;99.90;;;;;;5086855;28;20056;-71
2024/01/31 06:32:48;;;;;;;20.80;5.63;;;0.70;99.90;;;;;;5086231;28;20125;-69
2024/01/31 06:35:16;;;;;;;14.43;6.30;;;0.60;99.90;;;;;;5086675;28;20056;-62
2024/01/31 06:37:45;;;;;;;12.23;5.63;;;0.60;99.90;;;;;;5086555;28;20059;-66
2024/01/31 06:40:12;;;;;;;16.02;6.47;;;0.50;99.90;;;;;;5082310;28;20059;-65
2024/01/31 06:42:40;;;;;;;11.90;5.18;;;0.50;99.90;;;;;;5089124;28;20048;-68
2024/01/31 06:45:08;;;;;;;15.45;4.80;;;0.40;99.90;;;;;;5090065;28;20410;-69
2024/01/31 06:47:38;;;;;;;9.52;4.88;;;0.40;99.90;;;;;;5090766;28;20048;-67
2024/01/31 06:50:06;;;;;;;13.90;3.58;;;0.40;99.90;;;;;;5091462;28;20051;-69
2024/01/31 06:52:34;;;;;;;8.82;3.05;;;0.50;99.90;;;;;;5088968;28;20047;-69
2024/01/31 06:55:02;;;;;;;11.50;3.05;;;0.60;99.90;;;;;;5089952;28;20043;-70
2024/01/31 06:57:31;;;;;;;8.02;2.53;;;0.70;99.90;;;;;;5088686;28;20036;-66
2024/01/31 06:59:59;;;;;;;11.40;3.30;;;0.90;99.90;;;;;;5085287;28;20063;-66
2024/01/31 07:02:27;;;;;;;6.25;3.08;;;1.10;99.90;;;;;;5074922;28;20036;-63
2024/01/31 07:04:55;;;;;;;22.67;3.53;;;1.20;99.90;;;;;;5083657;28;20044;-66
2024/01/31 07:07:22;;;;;;;11.63;3.60;;;1.30;99.90;;;;;;5088326;28;20040;-64
2024/01/31 07:09:50;;;;;;;12.25;3.53;;;1.40;99.90;;;;;;5078956;28;20059;-63
2024/01/31 07:12:19;;;;;;;9.75;3.30;;;1.50;99.90;;;;;;5074582;28;20048;-65
2024/01/31 07:14:46;;;;;;;7.75;3.08;;;1.50;99.90;;;;;;5085685;28;20901;-64
2024/01/31 07:17:14;;;;;;;9.30;3.00;;;1.50;99.90;;;;;;5088199;28;20483;-66
2024/01/31 07:19:42;;;;;;;13.75;3.08;;;1.60;99.90;;;;;;5076047;28;20067;-64
2024/01/31 07:22:13;;;;;;;8.73;2.80;;;1.60;99.90;;;;;;5089985;28;20040;-65
2024/01/31 07:24:41;;;;;;;6.85;3.47;;;1.60;99.90;;;;;;5084328;28;20044;-65
2024/01/31 07:27:09;;;;;;;7.13;3.17;;;1.60;99.90;;;;;;5071904;28;20041;-65
2024/01/31 07:29:36;;;;;;;16.95;3.85;;;1.60;99.90;;;;;;5088721;28;20047;-66
2024/01/31 07:32:06;;;;;;;13.32;3.97;;;1.60;99.90;;;;;;5067525;28;20550;-66
2024/01/31 07:34:33;;;;;;;10.65;4.22;;;1.60;99.90;;;;;;5085694;28;20066;-62
2024/01/31 07:37:01;;;;;;;6.47;3.17;;;1.60;99.90;;;;;;5086749;28;20059;-62
2024/01/31 07:39:29;;;;;;;8.93;2.92;;;1.60;99.90;;;;;;5085722;28;20052;-65
2024/01/31 07:41:57;;;;;;;10.30;3.22;;;1.60;99.90;;;;;;5088712;28;20056;-64
2024/01/31 07:44:24;;;;;;;13.63;2.85;;;1.60;99.90;;;;;;5088945;28;20048;-62
2024/01/31 07:46:52;;;;;;;11.55;3.70;;;1.70;99.90;;;;;;5101643;28;20052;-63
2024/01/31 07:49:19;;;;;;;12.07;2.70;;;1.70;99.90;;;;;;5076427;28;20045;-62
2024/01/31 07:51:47;;;;;;;9.38;3.13;;;1.70;99.90;;;;;;5071039;28;20048;-63
2024/01/31 07:54:15;;;;;;;10.13;3.22;;;1.70;99.90;;;;;;5089896;28;20051;-64
2024/01/31 07:56:43;;;;;;;10.38;2.70;;;1.80;99.90;;;;;;5082534;28;20044;-65
2024/01/31 07:59:11;;;;;;;7.55;2.85;;;1.80;99.90;;;;;;5081485;28;20037;-66
2024/01/31 08:01:39;;;;;;;7.03;3.30;;;1.80;99.90;;;;;;5084459;28;20044;-63
2024/01/31 08:04:07;;;;;;;9.25;2.45;;;1.80;99.90;;;;;;5076788;28;20061;-66
2024/01/31 08:06:36;;;;;;;8.80;2.90;;;2.10;99.90;;;;;;5083621;28;20423;-63
2024/01/31 08:09:03;;;;;;;5.65;2.15;;;1.80;99.90;;;;;;5085495;28;20063;-67
2024/01/31 08:11:45;;;;;;;8.43;2.00;;;1.80;99.90;;;;;;5086148;28;20079;-67
2024/01/31 08:14:13;;;;;;;15.52;2.65;;;1.90;99.90;;;;;;5085707;28;20040;-63
2024/01/31 08:16:44;;;;;;;6.45;2.10;;;1.90;99.90;;;;;;5083866;28;20047;-63
2024/01/31 08:19:12;;;;;;;6.38;2.90;;;1.90;99.90;;;;;;5085644;28;20311;-64
2024/01/31 08:21:40;;;;;;;9.48;2.70;;;1.90;99.90;;;;;;5083180;28;20036;-64
2024/01/31 08:24:08;;;;;;;9.32;2.58;;;2.00;99.90;;;;;;5084503;28;20423;-64
2024/01/31 08:26:35;;;;;;;7.68;2.33;;;2.00;99.90;;;;;;5074567;28;20055;-69
2024/01/31 08:29:03;;;;;;;6.72;2.83;;;2.10;99.90;;;;;;5081086;28;20040;-63
2024/01/31 08:31:46;;;;;;;3.60;1.70;;;2.10;99.90;;;;;;5090504;28;20133;-63
2024/01/31 08:34:14;;;;;;;6.18;2.47;;;2.10;99.90;;;;;;5097655;28;20044;-63
2024/01/31 08:36:42;;;;;;;4.45;1.98;;;2.10;99.90;;;;;;5075231;28;20048;-64
2024/01/31 08:39:10;;;;;;;10.18;3.13;;;2.20;99.90;;;;;;5086691;28;20059;-63
2024/01/31 08:41:38;;;;;;;8.75;1.98;;;2.20;99.90;;;;;;5087776;28;20048;-64
2024/01/31 08:44:05;;;;;;;8.35;2.15;;;2.20;99.90;;;;;;5086576;28;20040;-64
2024/01/31 08:46:33;;;;;;;8.77;2.95;;;2.20;99.90;;;;;;5075517;28;20044;-63
2024/01/31 08:49:21;;;;;;;5.80;1.58;;;2.30;99.90;;;;;;5086048;28;20039;-63
2024/01/31 08:51:49;;;;;;;7.35;2.20;;;2.30;99.90;;;;;;5082944;28;20036;-64
2024/01/31 08:54:16;;;;;;;7.63;2.33;;;2.30;99.90;;;;;;5086578;28;20044;-61
2024/01/31 08:56:44;;;;;;;16.83;3.92;;;2.30;99.90;;;;;;5086905;28;20052;-64
2024/01/31 08:59:12;;;;;;;5.88;2.10;;;2.40;99.90;;;;;;5088447;28;20479;-64
2024/01/31 09:01:44;;;;;;;14.20;2.47;;;2.40;99.90;;;;;;5088165;28;20399;-66
2024/01/31 09:04:13;;;;;;;7.63;2.45;;;2.40;99.90;;;;;;5086512;28;20047;-63
2024/01/31 09:06:43;;;;;;;11.50;2.53;;;2.40;99.90;;;;;;5083082;28;20043;-63
2024/01/31 09:09:12;;;;;;;9.05;2.05;;;2.40;99.90;;;;;;5079358;28;20047;-62
2024/01/31 09:11:39;;;;;;;9.13;1.90;;;2.50;99.90;;;;;;5086859;28;20070;-63
2024/01/31 09:14:10;;;;;;;4.43;1.48;;;2.50;99.90;;;;;;5088587;28;20504;-63
2024/01/31 09:16:38;;;;;;;8.23;1.90;;;2.60;99.90;;;;;;5074629;28;20071;-63
2024/01/31 09:19:06;;;;;;;8.10;1.80;;;2.60;99.90;;;;;;5084071;28;20051;-72
2024/01/31 09:21:35;;;;;;;6.70;1.88;;;2.60;99.90;;;;;;5083658;28;20037;-62
2024/01/31 09:24:03;;;;;;;12.18;2.40;;;2.70;99.90;;;;;;5086526;28;20044;-62
2024/01/31 09:26:30;;;;;;;11.25;2.25;;;2.70;99.90;;;;;;5085639;28;20048;-62
2024/01/31 09:28:58;;;;;;;9.10;1.85;;;2.80;99.90;;;;;;5086708;28;20051;-63
2024/01/31 09:31:27;;;;;;;7.60;2.08;;;2.80;99.90;;;;;;5086976;28;20059;-64
2024/01/31 09:33:55;;;;;;;7.70;2.20;;;2.80;99.90;;;;;;5086785;28;20043;-63
2024/01/31 09:36:23;;;;;;;10.82;3.17;;;2.90;99.90;;;;;;5079939;28;20041;-63
2024/01/31 09:38:51;;;;;;;20.70;2.55;;;3.00;99.90;;;;;;5081783;28;20040;-63
2024/01/31 09:41:19;;;;;;;6.57;1.83;;;3.00;99.90;;;;;;5069947;28;20045;-64
2024/01/31 09:43:47;;;;;;;11.68;2.17;;;3.00;99.90;;;;;;5067603;28;20047;-64
2024/01/31 09:46:15;;;;;;;15.13;2.20;;;3.10;99.90;;;;;;5085141;28;20048;-63
2024/01/31 09:48:43;;;;;;;11.95;1.90;;;3.10;99.90;;;;;;5085941;28;20040;-64
2024/01/31 09:51:12;;;;;;;5.65;1.95;;;3.20;99.90;;;;;;5091862;28;20070;-62
2024/01/31 09:53:44;;;;;;;7.10;1.70;;;3.20;99.90;;;;;;5087883;28;20391;-65
2024/01/31 09:56:12;;;;;;;11.18;1.92;;;3.20;99.90;;;;;;5087257;28;20431;-63
2024/01/31 09:58:40;;;;;;;10.35;1.83;;;3.20;99.90;;;;;;5085453;28;20039;-63
2024/01/31 10:01:09;;;;;;;7.13;2.85;;;3.20;99.90;;;;;;5091554;28;20055;-64
2024/01/31 10:03:47;;;;;;;8.63;1.80;;;3.30;99.90;;;;;;5091298;28;20048;-63
2024/01/31 10:06:15;;;;;;;4.75;1.58;;;3.30;99.90;;;;;;5091196;28;20487;-63
2024/01/31 10:08:43;;;;;;;6.57;2.45;;;3.30;99.90;;;;;;5085337;28;20055;-63
2024/01/31 10:11:14;;;;;;;12.43;2.10;;;3.30;99.90;;;;;;5091656;28;20070;-63
2024/01/31 10:13:42;;;;;;;6.20;2.00;;;3.30;99.90;;;;;;5085866;28;20613;-63
2024/01/31 10:16:14;;;;;;;9.10;1.70;;;3.30;99.90;;;;;;5084300;28;20051;-63
2024/01/31 10:18:42;;;;;;;12.13;1.85;;;3.40;99.90;;;;;;5091658;28;20498;-64
2024/01/31 10:21:10;;;;;;;4.43;1.48;;;3.40;99.90;;;;;;5091605;28;20051;-64
2024/01/31 10:23:38;;;;;;;7.18;1.77;;;3.40;99.90;;;;;;5097500;28;20048;-65
2024/01/31 10:26:07;;;;;;;6.10;1.70;;;3.50;99.90;;;;;;5082823;28;20040;-65
2024/01/31 10:28:39;;;;;;;5.88;1.63;;;3.50;99.90;;;;;;5087463;28;20056;-66
2024/01/31 10:31:13;;;;;;;10.10;1.73;;;3.50;99.90;;;;;;5089161;28;20411;-63
2024/01/31 10:33:41;;;;;;;4.15;1.90;;;3.60;99.90;;;;;;5090384;28;20762;-65
2024/01/31 10:36:10;;;;;;;6.15;1.73;;;3.60;99.90;;;;;;5058518;28;20052;-64
2024/01/31 10:38:58;;;;;;;7.97;1.80;;;3.60;99.90;;;;;;5083774;28;20036;-63
2024/01/31 10:41:27;;;;;;;14.60;2.17;;;3.60;99.90;;;;;;5085479;28;20062;-64
2024/01/31 10:43:57;;;;;;;6.85;1.77;;;3.60;99.90;;;;;;5088216;28;20059;-66
2024/01/31 10:46:28;;;;;;;13.90;2.38;;;3.70;99.90;;;;;;5089797;28;20052;-63
2024/01/31 10:48:56;;;;;;;5.65;2.22;;;3.70;99.90;;;;;;5087766;28;20040;-66
2024/01/31 10:51:24;;;;;;;6.65;1.48;;;3.80;99.90;;;;;;5069782;28;20044;-70
2024/01/31 10:53:55;;;;;;;12.38;2.40;;;3.90;99.90;;;;;;5088197;28;20055;-68
2024/01/31 10:56:24;;;;;;;5.70;1.80;;;3.90;99.90;;;;;;5082102;28;20047;-69
2024/01/31 10:58:53;;;;;;;12.38;2.38;;;3.90;99.90;;;;;;5081442;28;20097;-65
2024/01/31 11:01:30;;;;;;;14.68;2.20;;;4.00;99.90;;;;;;5090380;28;20052;-63
2024/01/31 11:04:02;;;;;;;8.35;1.92;;;4.10;99.90;;;;;;5090579;28;20048;-67
2024/01/31 11:06:39;;;;;;;5.88;1.80;;;4.20;99.90;;;;;;5083742;28;20040;-66
2024/01/31 11:09:17;;;;;;;7.78;2.28;;;4.20;99.90;;;;;;5088835;28;20052;-67
2024/01/31 11:11:44;;;;;;;5.72;1.65;;;4.30;99.90;;;;;;5081891;28;20484;-68
2024/01/31 11:14:14;;;;;;;6.65;2.00;;;4.30;99.90;;;;;;5090541;28;20533;-71
2024/01/31 11:16:43;;;;;;;9.93;1.95;;;4.30;99.90;;;;;;5088092;28;20415;-71
2024/01/31 11:19:19;;;;;;;7.65;2.55;;;4.40;99.90;;;;;;5080764;28;20078;-64
2024/01/31 11:21:47;;;;;;;6.85;1.75;;;4.50;99.90;;;;;;5088146;28;20070;-66
2024/01/31 11:24:16;;;;;;;9.40;1.83;;;4.50;99.90;;;;;;5090263;28;20040;-63
2024/01/31 11:26:44;;;;;;;7.95;1.70;;;4.60;99.90;;;;;;5082640;28;20510;-64
2024/01/31 11:29:12;;;;;;;5.97;2.83;;;4.70;99.90;;;;;;5086278;28;20415;-69
2024/01/31 11:31:40;;;;;;;7.00;2.15;;;4.80;99.90;;;;;;5085478;28;20044;-64
2024/01/31 11:34:08;;;;;;;7.95;1.40;;;5.00;99.90;;;;;;5089852;28;20051;-68
2024/01/31 11:36:36;;;;;;;10.65;2.22;;;5.10;99.90;;;;;;5089054;28;20047;-67
2024/01/31 11:39:05;;;;;;;11.85;2.28;;;5.10;99.90;;;;;;5083186;28;20044;-67
2024/01/31 11:41:33;;;;;;;8.40;1.92;;;5.20;99.90;;;;;;5084391;28;20036;-69
2024/01/31 11:44:01;;;;;;;9.20;1.60;;;5.20;99.90;;;;;;5085297;28;20048;-64
2024/01/31 11:46:30;;;;;;;18.27;2.38;;;5.30;99.90;;;;;;5086122;28;20055;-64
2024/01/31 11:48:59;;;;;;;7.97;2.03;;;5.30;99.90;;;;;;5084586;28;20648;-67
2024/01/31 11:51:28;;;;;;;6.68;2.05;;;5.40;99.90;;;;;;5064598;28;20071;-70
2024/01/31 11:53:56;;;;;;;6.78;1.77;;;5.40;99.90;;;;;;5098928;28;20403;-64
2024/01/31 11:56:24;;;;;;;8.52;1.70;;;5.50;99.90;;;;;;5089663;28;20044;-71
2024/01/31 11:58:53;;;;;;;8.30;1.98;;;5.50;99.90;;;;;;5079499;28;20491;-71
2024/01/31 12:01:20;;;;;;;10.30;1.83;;;5.50;99.90;;;;;;5085975;28;20055;-72
2024/01/31 12:03:49;;;;;;;4.88;1.50;;;5.60;99.90;;;;;;5084719;28;20040;-70
2024/01/31 12:06:20;;;;;;;9.15;1.67;;;5.70;99.90;;;;;;5088773;28;20056;-66
2024/01/31 12:08:49;;;;;;;6.65;1.60;;;5.80;99.90;;;;;;5103642;28;20051;-65
2024/01/31 12:11:17;;;;;;;5.53;1.40;;;5.90;99.90;;;;;;5107108;28;20479;-64
2024/01/31 12:13:45;;;;;;;6.10;1.77;;;6.00;99.90;;;;;;5084288;28;20040;-70
2024/01/31 12:16:13;;;;;;;6.05;1.77;;;6.00;99.90;;;;;;5087974;28;20044;-71
2024/01/31 12:18:41;;;;;;;14.05;2.17;;;6.10;99.90;;;;;;5088256;28;20051;-70
2024/01/31 12:21:10;;;;;;;10.00;2.30;;;6.10;99.90;;;;;;5082132;28;20040;-69
2024/01/31 12:23:38;;;;;;;9.65;1.67;;;6.20;99.90;;;;;;5091411;28;20044;-66
2024/01/31 12:26:06;;;;;;;7.20;1.30;;;6.20;99.90;;;;;;5087251;28;20055;-66
2024/01/31 12:28:33;;;;;;;5.30;1.52;;;6.20;99.90;;;;;;5081806;28;20040;-68
2024/01/31 12:31:02;;;;;;;8.65;2.25;;;6.30;99.90;;;;;;5088256;28;20044;-69
2024/01/31 12:33:30;;;;;;;8.40;1.65;;;6.30;99.90;;;;;;5096163;28;20536;-68
2024/01/31 12:35:58;;;;;;;11.90;1.73;;;6.40;99.90;;;;;;5099343;28;20044;-64
2024/01/31 12:38:25;;;;;;;2.95;1.20;;;6.40;99.90;;;;;;5088241;28;20048;-67
2024/01/31 12:40:54;;;;;;;12.52;1.65;;;6.50;99.90;;;;;;5084474;28;20407;-64
2024/01/31 12:43:23;;;;;;;7.25;1.60;;;6.60;99.90;;;;;;5081525;28;20047;-69
2024/01/31 12:45:51;;;;;;;4.80;1.25;;;6.70;99.90;;;;;;5083728;28;20048;-72
2024/01/31 12:48:20;;;;;;;5.60;1.20;;;6.70;99.90;;;;;;5087430;28;20052;-68
2024/01/31 12:50:48;;;;;;;27.15;3.28;;;6.90;99.90;;;;;;5088707;28;20052;-71
2024/01/31 12:53:16;;;;;;;4.93;1.30;;;7.00;99.90;;;;;;5095444;28;20040;-63
2024/01/31 12:55:43;;;;;;;6.60;1.95;;;7.10;99.90;;;;;;5086517;28;20040;-63
2024/01/31 12:58:11;;;;;;;4.28;0.90;;;7.10;99.90;;;;;;5082835;28;20044;-69
2024/01/31 13:00:39;;;;;;;7.22;1.88;;;7.20;99.90;;;;;;5088312;28;20392;-66
2024/01/31 13:03:07;;;;;;;9.95;1.40;;;7.20;99.90;;;;;;5086310;28;20036;-70
2024/01/31 13:05:35;;;;;;;8.20;1.03;;;7.30;99.90;;;;;;5086887;28;20475;-70
2024/01/31 13:08:04;;;;;;;8.23;1.40;;;7.30;99.90;;;;;;5088278;28;20419;-72
2024/01/31 13:10:32;;;;;;;10.38;1.33;;;7.40;99.90;;;;;;5088144;28;20494;-71
2024/01/31 13:13:00;;;;;;;2.63;1.05;;;7.40;99.90;;;;;;5080410;28;20044;-71
2024/01/31 13:15:27;;;;;;;4.47;1.00;;;7.40;99.90;;;;;;5087566;28;20039;-71
2024/01/31 13:17:55;;;;;;;5.28;1.38;;;7.50;99.90;;;;;;5088070;28;20047;-70
2024/01/31 13:20:23;;;;;;;6.15;1.45;;;7.60;99.90;;;;;;5069689;28;20048;-71
2024/01/31 13:22:52;;;;;;;5.10;1.23;;;7.70;99.90;;;;;;5074940;28;20071;-67